Time;durP1;ratioP1;P1;durP2;ratioP2;P2;SDS_P1;SDS_P2;PMS_P1;PMS_P2;Temp;Humidity;BMP_temperature;BMP_pressure;BME280_temperature;BME280_humidity;BME280_pressure;Samples;Min_cycle;Max_cycle;Signal;HPM_P1;HPM_P2
2023/12/16 00:01:08;;;;;;;43.07;17.70;;;;;;;3.97;100.00;102370.59;4996579;57;1140990;-79
2023/12/16 00:06:18;;;;;;;51.20;18.07;;;;;;;3.98;100.00;102377.52;4919217;58;1141045;-77
2023/12/16 00:11:22;;;;;;;49.17;16.43;;;;;;;4.00;100.00;102386.21;4919657;58;1140913;-78
2023/12/16 00:16:27;;;;;;;53.27;19.73;;;;;;;4.00;100.00;102377.05;4939098;58;1140761;-77
2023/12/16 00:21:33;;;;;;;59.80;18.03;;;;;;;4.01;100.00;102381.39;4919837;58;1140754;-75
2023/12/16 00:26:38;;;;;;;52.13;18.23;;;;;;;4.02;100.00;102380.50;4967313;57;1141003;-79
2023/12/16 00:31:45;;;;;;;59.87;20.73;;;;;;;4.05;100.00;102375.20;5019309;57;1140817;-78
2023/12/16 00:36:50;;;;;;;42.73;18.10;;;;;;;4.04;100.00;102380.03;4990644;57;1141007;-77
2023/12/16 00:41:56;;;;;;;48.17;19.17;;;;;;;4.08;100.00;102382.56;4946004;58;1140892;-77
2023/12/16 00:47:05;;;;;;;53.35;18.52;;;;;;;4.11;100.00;102390.80;4869243;59;1141115;-78
2023/12/16 00:52:10;;;;;;;56.67;19.43;;;;;;;4.13;100.00;102399.02;4896413;58;1141121;-76
2023/12/16 00:57:16;;;;;;;60.93;20.90;;;;;;;4.18;100.00;102391.07;4976921;57;1141090;-76
2023/12/16 01:02:21;;;;;;;60.52;23.42;;;;;;;4.20;100.00;102384.05;4976489;58;1141108;-76
2023/12/16 01:07:27;;;;;;;59.38;19.75;;;;;;;4.24;100.00;102394.88;4894372;58;1140901;-77
2023/12/16 01:12:32;;;;;;;56.30;18.63;;;;;;;4.28;100.00;102407.47;4875493;58;1141009;-79
2023/12/16 01:17:38;;;;;;;66.40;22.07;;;;;;;4.31;100.00;102399.08;4884082;58;1140859;-76
2023/12/16 01:22:43;;;;;;;57.53;18.63;;;;;;;4.35;100.00;102419.52;4859990;58;1140954;-76
2023/12/16 01:27:49;;;;;;;58.67;20.07;;;;;;;4.39;100.00;102440.84;4840876;59;1140911;-78
2023/12/16 01:32:55;;;;;;;58.83;20.23;;;;;;;4.41;100.00;102429.89;4860639;59;1141042;-77
2023/12/16 01:38:00;;;;;;;62.80;20.27;;;;;;;4.43;100.00;102407.14;5079631;57;1140869;-78
2023/12/16 01:43:08;;;;;;;58.40;21.97;;;;;;;4.46;100.00;102410.98;5050396;56;1140834;-78
2023/12/16 01:48:14;;;;;;;58.67;18.67;;;;;;;4.48;100.00;102410.05;5054036;57;1140752;-76
2023/12/16 01:53:20;;;;;;;59.13;20.35;;;;;;;4.51;100.00;102402.13;5036449;57;1140863;-79
2023/12/16 01:58:25;;;;;;;66.80;20.87;;;;;;;4.53;100.00;102395.10;4996567;57;1140700;-76
2023/12/16 02:03:32;;;;;;;66.50;23.07;;;;;;;4.54;100.00;102392.03;4977476;58;1140973;-78
2023/12/16 02:08:38;;;;;;;75.03;23.60;;;;;;;4.55;100.00;102380.66;4977733;58;1140828;-77
2023/12/16 02:13:44;;;;;;;56.95;20.48;;;;;;;4.55;100.00;102378.91;4997702;58;1141249;-78
2023/12/16 02:18:51;;;;;;;61.27;21.93;;;;;;;4.57;100.00;102392.84;4978017;58;1140979;-76
2023/12/16 02:23:56;;;;;;;57.57;19.50;;;;;;;4.59;100.00;102392.77;4983427;57;1140977;-77
2023/12/16 02:29:02;;;;;;;68.97;22.73;;;;;;;4.59;100.00;102394.94;4942327;56;1140678;-79
2023/12/16 02:34:08;;;;;;;64.20;20.30;;;;;;;4.59;100.00;102401.94;4860502;58;1150485;-76
2023/12/16 02:39:14;;;;;;;61.08;23.62;;;;;;;4.61;100.00;102397.53;5059952;56;1140950;-78
2023/12/16 02:44:19;;;;;;;67.40;19.98;;;;;;;4.61;100.00;102409.33;5048580;56;1140878;-76
2023/12/16 02:49:25;;;;;;;70.73;22.60;;;;;;;4.64;100.00;102428.05;4891030;59;1140990;-78
2023/12/16 02:54:30;;;;;;;60.97;22.57;;;;;;;4.65;100.00;102428.47;5053181;56;1140942;-77
2023/12/16 02:59:36;;;;;;;76.10;25.33;;;;;;;4.65;100.00;102431.95;5092566;57;1141039;-76
2023/12/16 03:04:42;;;;;;;76.00;23.13;;;;;;;4.67;100.00;102439.34;5112918;56;1140771;-77
2023/12/16 03:09:47;;;;;;;66.50;22.40;;;;;;;4.67;100.00;102439.34;5092901;57;1140846;-76
2023/12/16 03:14:53;;;;;;;56.73;22.33;;;;;;;4.71;100.00;102450.63;5092711;57;1141104;-77
2023/12/16 03:19:58;;;;;;;51.50;19.53;;;;;;;4.74;100.00;102444.84;5112726;57;1140780;-75
2023/12/16 03:25:06;;;;;;;57.98;20.75;;;;;;;4.75;100.00;102434.77;5083258;57;1141132;-77
2023/12/16 03:30:12;;;;;;;56.90;18.13;;;;;;;4.79;100.00;102441.67;4973479;58;1140717;-77
2023/12/16 03:35:18;;;;;;;56.53;17.95;;;;;;;4.83;100.00;102443.78;4911755;58;1141547;-78
2023/12/16 03:40:24;;;;;;;41.93;19.17;;;;;;;4.84;100.00;102446.38;4952520;58;1141047;-78
2023/12/16 03:45:29;;;;;;;48.37;17.53;;;;;;;4.86;100.00;102436.72;4877248;59;1140956;-77
2023/12/16 03:50:35;;;;;;;41.83;16.17;;;;;;;4.89;100.00;102434.00;4991167;57;1141008;-77
2023/12/16 03:55:40;;;;;;;39.00;15.97;;;;;;;4.90;100.00;102443.59;5050529;57;1143235;-77
2023/12/16 04:00:46;;;;;;;44.50;16.50;;;;;;;4.90;100.00;102465.02;5039599;56;1143105;-78
2023/12/16 04:05:51;;;;;;;41.33;16.23;;;;;;;4.88;100.00;102461.59;5039475;57;1142985;-78
2023/12/16 04:10:57;;;;;;;39.80;14.07;;;;;;;4.86;100.00;102464.25;5061141;56;1141117;-78
2023/12/16 04:16:06;;;;;;;41.70;13.03;;;;;;;4.85;100.00;102456.41;5039874;57;1140902;-76
2023/12/16 04:21:12;;;;;;;40.50;15.23;;;;;;;4.85;100.00;102449.86;5001221;57;1141003;-76
2023/12/16 04:26:17;;;;;;;52.90;15.28;;;;;;;4.85;100.00;102448.55;5021801;57;1141073;-76
2023/12/16 04:31:23;;;;;;;46.60;15.33;;;;;;;4.85;100.00;102459.03;5077893;57;1140980;-78
2023/12/16 04:36:29;;;;;;;35.93;13.90;;;;;;;4.87;100.00;102454.63;5041097;56;1142934;-79
2023/12/16 04:41:34;;;;;;;32.17;13.77;;;;;;;4.87;100.00;102454.17;5038775;57;1142816;-77
2023/12/16 04:46:40;;;;;;;56.63;18.13;;;;;;;4.89;100.00;102456.73;5004243;57;1142990;-78
2023/12/16 04:51:46;;;;;;;38.40;14.70;;;;;;;4.91;100.00;102445.77;4976383;57;1143446;-78
2023/12/16 04:56:51;;;;;;;39.03;13.23;;;;;;;4.90;100.00;102450.59;4808526;59;1141179;-78
2023/12/16 05:01:57;;;;;;;46.80;15.70;;;;;;;4.90;100.00;102452.77;4904532;59;1140807;-76
2023/12/16 05:07:02;;;;;;;37.50;15.17;;;;;;;4.89;100.00;102453.66;4825412;60;1140664;-79
2023/12/16 05:12:08;;;;;;;54.03;16.57;;;;;;;4.90;100.00;102460.63;4825760;60;1141037;-78
2023/12/16 05:17:14;;;;;;;48.83;16.65;;;;;;;4.90;100.00;102454.53;4977550;57;1141136;-79
2023/12/16 05:22:19;;;;;;;38.70;15.83;;;;;;;4.91;100.00;102465.42;4996393;57;1141077;-77
2023/12/16 05:27:25;;;;;;;45.63;15.83;;;;;;;4.90;100.00;102472.43;5041124;57;1140863;-77
2023/12/16 05:32:30;;;;;;;44.27;16.45;;;;;;;4.91;100.00;102470.67;4964921;58;1141032;-76
2023/12/16 05:37:36;;;;;;;51.13;18.17;;;;;;;4.92;100.00;102469.78;4984678;58;1141104;-78
2023/12/16 05:42:42;;;;;;;44.03;17.10;;;;;;;4.94;100.00;102471.92;4899686;58;1140836;-76
2023/12/16 05:47:47;;;;;;;44.30;14.80;;;;;;;4.94;100.00;102468.85;4885720;59;1141135;-77
2023/12/16 05:52:53;;;;;;;46.60;15.73;;;;;;;4.96;100.00;102477.99;4842600;60;1140685;-77
2023/12/16 05:57:58;;;;;;;55.10;16.87;;;;;;;4.95;100.00;102475.82;4825806;60;1140960;-76
2023/12/16 06:03:04;;;;;;;38.13;15.30;;;;;;;4.98;100.00;102489.77;4825698;59;1141012;-78
2023/12/16 06:08:10;;;;;;;45.07;15.07;;;;;;;4.98;100.00;102489.77;4844548;60;1141003;-78
2023/12/16 06:13:15;;;;;;;43.07;15.80;;;;;;;5.00;100.00;102495.84;4785644;59;1140778;-76
2023/12/16 06:18:21;;;;;;;40.10;16.57;;;;;;;5.00;100.00;102481.41;4750480;60;1140945;-76
2023/12/16 06:23:29;;;;;;;41.63;14.63;;;;;;;5.01;100.00;102483.14;4768753;60;1141130;-76
2023/12/16 06:28:35;;;;;;;47.75;14.40;;;;;;;5.02;100.00;102487.49;4752259;59;1140749;-76
2023/12/16 06:33:41;;;;;;;51.53;16.00;;;;;;;5.03;100.00;102483.97;4751203;60;1140880;-76
2023/12/16 06:38:46;;;;;;;38.37;14.03;;;;;;;5.02;100.00;102475.24;4768835;60;1140969;-79
2023/12/16 06:43:52;;;;;;;38.27;13.13;;;;;;;5.03;100.00;102480.05;4754873;60;1140812;-78
2023/12/16 06:48:58;;;;;;;37.80;13.63;;;;;;;5.04;100.00;102479.14;4825108;59;1140882;-78
2023/12/16 06:54:04;;;;;;;50.53;13.87;;;;;;;5.03;100.00;102477.42;4830601;59;1140974;-78
2023/12/16 06:59:09;;;;;;;31.17;13.17;;;;;;;5.04;100.00;102494.40;4800372;59;1141050;-78
2023/12/16 07:04:15;;;;;;;34.97;12.33;;;;;;;5.06;100.00;102508.79;4818587;60;1141038;-76
2023/12/16 07:09:20;;;;;;;27.17;13.60;;;;;;;5.09;100.00;102523.15;4856568;58;1140855;-78
2023/12/16 07:14:28;;;;;;;38.73;14.47;;;;;;;5.12;100.00;102525.71;4915088;58;1141041;-78
2023/12/16 07:19:34;;;;;;;30.77;14.37;;;;;;;5.14;100.00;102516.91;4895235;58;1141029;-78
2023/12/16 07:24:40;;;;;;;36.80;13.00;;;;;;;5.15;100.00;102523.89;4889485;58;1140867;-76
2023/12/16 07:29:46;;;;;;;29.40;10.77;;;;;;;5.16;100.00;102524.30;4915016;59;1142877;-80
2023/12/16 07:34:52;;;;;;;34.85;16.40;;;;;;;5.18;100.00;102517.27;4894579;58;1142789;-75
2023/12/16 07:39:57;;;;;;;34.97;13.57;;;;;;;5.21;100.00;102511.92;4895120;58;1142960;-75
2023/12/16 07:45:04;;;;;;;32.20;12.67;;;;;;;5.21;100.00;102510.61;4915112;58;1142898;-77
2023/12/16 07:50:11;;;;;;;31.42;11.97;;;;;;;5.19;100.00;102512.44;4897716;58;1143013;-76
2023/12/16 07:55:16;;;;;;;36.00;13.62;;;;;;;5.20;100.00;102515.44;4838390;58;1143043;-75
2023/12/16 08:00:22;;;;;;;26.93;11.00;;;;;;;5.21;100.00;102511.92;4785125;58;1143092;-78
2023/12/16 08:05:28;;;;;;;32.30;12.53;;;;;;;5.21;100.00;102517.17;4858111;59;1140767;-79
2023/12/16 08:10:34;;;;;;;35.63;13.37;;;;;;;5.24;100.00;102516.23;4863902;59;1142795;-77
2023/12/16 08:15:39;;;;;;;28.13;9.97;;;;;;;5.26;100.00;102521.87;4860784;58;1143075;-78
2023/12/16 08:20:45;;;;;;;21.77;8.63;;;;;;;5.30;100.00;102514.34;4857198;59;1141061;-78
2023/12/16 08:25:51;;;;;;;21.63;10.33;;;;;;;5.34;100.00;102504.64;5010410;57;1140849;-79
2023/12/16 08:30:56;;;;;;;26.97;9.67;;;;;;;5.36;100.00;102494.95;4836275;59;1142856;-77
2023/12/16 08:36:02;;;;;;;24.23;9.53;;;;;;;5.38;100.00;102500.16;4997123;57;1140772;-79
2023/12/16 08:41:09;;;;;;;26.23;8.70;;;;;;;5.39;100.00;102504.52;4881746;58;1140863;-77
2023/12/16 08:46:14;;;;;;;20.37;8.57;;;;;;;5.41;100.00;102513.21;4860619;59;1140695;-76
2023/12/16 08:51:24;;;;;;;28.07;10.73;;;;;;;5.43;100.00;102509.66;4855361;59;1141059;-79
2023/12/16 08:56:30;;;;;;;43.13;14.33;;;;;;;5.46;100.00;102517.91;4833317;58;1140542;-79
2023/12/16 09:01:35;;;;;;;56.70;20.17;;;;;;;5.48;100.00;102508.24;4852421;59;1143232;-80
2023/12/16 09:06:43;;;;;;;31.20;12.40;;;;;;;5.46;100.00;102510.91;4782153;59;1142999;-80
2023/12/16 09:11:48;;;;;;;72.77;28.37;;;;;;;5.51;100.00;102509.45;4996939;58;1140918;-80
2023/12/16 09:16:54;;;;;;;47.33;20.43;;;;;;;5.53;100.00;102516.39;4977277;57;1142723;-79
2023/12/16 09:22:00;;;;;;;32.45;11.20;;;;;;;5.54;100.00;102508.94;5004047;57;1143017;-80
2023/12/16 09:27:06;;;;;;;28.03;10.40;;;;;;;5.55;100.00;102514.59;4802408;59;1140985;-78
2023/12/16 09:32:12;;;;;;;46.73;11.53;;;;;;;5.57;100.00;102514.56;4826057;59;1144617;-78
2023/12/16 09:37:18;;;;;;;32.90;9.28;;;;;;;5.60;100.00;102517.98;4845380;57;1142868;-79
2023/12/16 09:42:26;;;;;;;24.75;9.65;;;;;;;5.62;100.00;102517.95;4845494;58;1140813;-79
2023/12/16 09:47:32;;;;;;;25.67;9.23;;;;;;;5.64;100.00;102510.90;4926766;58;1138723;-76
2023/12/16 09:52:39;;;;;;;20.47;8.60;;;;;;;5.65;100.00;102512.63;4845739;59;1138483;-78
2023/12/16 09:57:46;;;;;;;31.17;10.53;;;;;;;5.64;100.00;102511.77;4829190;59;1139013;-77
2023/12/16 10:02:56;;;;;;;37.67;13.33;;;;;;;5.68;100.00;102516.91;5097136;57;1141159;-79
2023/12/16 10:08:05;;;;;;;22.73;9.13;;;;;;;5.71;100.00;102516.39;5043228;56;1140801;-80
2023/12/16 10:13:10;;;;;;;17.83;7.73;;;;;;;5.72;100.00;102521.19;5054104;56;1138927;-78
2023/12/16 10:18:17;;;;;;;20.83;7.47;;;;;;;5.72;100.00;102519.42;5036107;56;1138916;-77
2023/12/16 10:23:26;;;;;;;26.52;10.20;;;;;;;5.72;100.00;102511.55;5066551;56;1138919;-77
2023/12/16 10:28:33;;;;;;;23.93;7.97;;;;;;;5.75;100.00;102500.98;5094643;57;1140949;-78
2023/12/16 10:33:39;;;;;;;21.40;6.67;;;;;;;5.79;100.00;102501.77;5073305;57;1138769;-78
2023/12/16 10:38:45;;;;;;;24.73;9.47;;;;;;;5.79;100.00;102501.31;5093210;57;1138659;-79
2023/12/16 10:43:50;;;;;;;20.37;7.90;;;;;;;5.82;100.00;102505.15;5006339;57;1138749;-80
2023/12/16 10:48:58;;;;;;;22.60;8.40;;;;;;;5.83;100.00;102496.82;5014159;56;1138960;-79
2023/12/16 10:54:10;;;;;;;16.90;6.70;;;;;;;5.86;100.00;102500.69;5064542;56;1138824;-80
2023/12/16 10:59:29;;;;;;;20.40;9.10;;;;;;;5.88;100.00;102494.95;5052750;57;1138929;-80
2023/12/16 11:04:38;;;;;;;24.93;6.53;;;;;;;5.91;100.00;102485.72;5095054;57;1140851;-80
2023/12/16 11:09:45;;;;;;;15.50;5.33;;;;;;;5.95;100.00;102483.42;5014011;57;1138552;-80
2023/12/16 11:14:54;;;;;;;20.40;6.37;;;;;;;5.97;100.00;102474.58;5013762;56;1138715;-79
2023/12/16 11:20:07;;;;;;;25.93;7.20;;;;;;;5.99;100.00;102472.77;5022758;57;1138783;-79
2023/12/16 11:25:21;;;;;;;12.37;5.28;;;;;;;6.00;100.00;102482.38;5070745;57;1176997;-78
2023/12/16 11:30:34;;;;;;;18.90;6.20;;;;;;;6.03;100.00;102484.06;5059881;56;1138907;-73
2023/12/16 11:35:52;;;;;;;18.73;5.90;;;;;;;6.04;100.00;102466.09;5019441;56;1236294;-77
2023/12/16 11:40:58;;;;;;;20.23;5.60;;;;;;;6.03;100.00;102463.05;5018620;56;1221679;-81
2023/12/16 11:46:04;;;;;;;19.43;6.47;;;;;;;6.03;100.00;102464.81;5000410;57;1138701;-80
2023/12/16 11:51:09;;;;;;;17.77;5.73;;;;;;;6.04;100.00;102461.28;5009388;57;1138755;-80
2023/12/16 11:56:15;;;;;;;16.40;6.28;;;;;;;6.02;100.00;102460.02;5044912;56;1227984;-78
2023/12/16 12:01:21;;;;;;;23.60;7.13;;;;;;;6.06;100.00;102452.47;5053063;56;1138490;-81
2023/12/16 12:06:27;;;;;;;20.40;7.10;;;;;;;6.09;100.00;102443.64;5064474;56;1139032;-79
2023/12/16 12:11:32;;;;;;;15.70;6.47;;;;;;;6.13;100.00;102442.17;5140903;56;1138768;-78
2023/12/16 12:16:38;;;;;;;23.67;6.90;;;;;;;6.15;100.00;102427.23;5066194;56;1138831;-78
2023/12/16 12:21:44;;;;;;;16.27;6.23;;;;;;;6.16;100.00;102429.41;5056297;56;1138977;-80
2023/12/16 12:26:51;;;;;;;22.07;7.20;;;;;;;6.18;100.00;102429.78;5141309;56;1140851;-75
2023/12/16 12:32:00;;;;;;;32.80;10.00;;;;;;;6.17;100.00;102422.80;5130479;56;1140745;-77
2023/12/16 12:37:04;;;;;;;36.43;9.43;;;;;;;6.19;100.00;102410.94;5121402;56;1142954;-77
2023/12/16 12:42:10;;;;;;;54.45;11.33;;;;;;;6.22;100.00;102402.52;5094429;56;1247016;-79
2023/12/16 12:47:16;;;;;;;24.90;7.07;;;;;;;6.27;100.00;102400.59;5068104;56;1218238;-77
2023/12/16 12:52:37;;;;;;;68.33;18.97;;;;;;;6.30;100.00;102390.45;5069656;56;1248203;-76
2023/12/16 12:57:42;;;;;;;57.03;11.70;;;;;;;6.28;100.00;102385.69;5083600;56;1142813;-78
2023/12/16 13:02:48;;;;;;;19.90;7.47;;;;;;;6.32;100.00;102388.19;5054589;56;1251269;-78
2023/12/16 13:07:54;;;;;;;49.03;13.57;;;;;;;6.31;100.00;102382.53;5057724;56;1258132;-81
2023/12/16 13:12:59;;;;;;;42.70;12.23;;;;;;;6.33;100.00;102382.48;5140083;56;1259743;-80
2023/12/16 13:18:05;;;;;;;31.47;9.30;;;;;;;6.31;100.00;102367.21;5050545;56;1260654;-79
2023/12/16 13:23:12;;;;;;;33.60;10.87;;;;;;;6.32;100.00;102361.91;5050247;56;1255690;-77
2023/12/16 13:28:18;;;;;;;31.07;8.77;;;;;;;6.34;100.00;102357.93;5136370;56;1258066;-78
2023/12/16 13:33:24;;;;;;;35.95;8.98;;;;;;;6.34;100.00;102351.36;4967227;58;1141049;-79
2023/12/16 13:38:29;;;;;;;70.40;19.82;;;;;;;6.35;100.00;102332.06;5126574;56;1140757;-78
2023/12/16 13:43:35;;;;;;;31.20;9.80;;;;;;;6.36;100.00;102327.21;5063256;56;1143113;-79
2023/12/16 13:48:40;;;;;;;20.10;7.40;;;;;;;6.37;100.00;102324.99;5131253;56;1141124;-80
2023/12/16 13:53:46;;;;;;;39.57;13.30;;;;;;;6.34;100.00;102334.28;5045131;56;1140832;-78
2023/12/16 13:58:52;;;;;;;28.00;10.37;;;;;;;6.35;100.00;102336.86;5060266;57;1243169;-78
2023/12/16 14:03:58;;;;;;;20.20;8.10;;;;;;;6.32;100.00;102333.01;5067993;56;1142930;-79
2023/12/16 14:09:03;;;;;;;33.60;13.73;;;;;;;6.31;100.00;102329.97;5048427;56;1138946;-80
2023/12/16 14:14:09;;;;;;;33.47;9.10;;;;;;;6.32;100.00;102318.55;5020706;56;1143050;-79
2023/12/16 14:19:16;;;;;;;26.94;8.02;;;;;;;6.30;100.00;102301.98;5036375;56;1225481;-78
2023/12/16 14:24:21;;;;;;;24.23;11.18;;;;;;;6.29;100.00;102304.65;5035226;56;1138669;-74
2023/12/16 14:29:28;;;;;;;23.83;8.30;;;;;;;6.26;100.00;102304.77;5025574;56;1143018;-81
2023/12/16 14:34:34;;;;;;;27.63;9.10;;;;;;;6.22;100.00;102296.57;5041043;56;1138783;-76
2023/12/16 14:39:40;;;;;;;18.73;7.17;;;;;;;6.19;100.00;102289.63;5054587;56;1175914;-77
2023/12/16 14:44:45;;;;;;;21.10;8.00;;;;;;;6.16;100.00;102292.35;5037526;56;1138680;-77
2023/12/16 14:49:51;;;;;;;24.27;10.03;;;;;;;6.13;100.00;102288.95;5038824;56;1138838;-78
2023/12/16 14:54:56;;;;;;;20.97;9.97;;;;;;;6.11;100.00;102293.42;5030348;57;1142942;-75
2023/12/16 15:00:03;;;;;;;24.83;11.23;;;;;;;6.06;100.00;102286.12;4977610;58;1138699;-78
2023/12/16 15:05:09;;;;;;;23.63;10.13;;;;;;;6.00;100.00;102279.28;4985336;57;1140910;-77
2023/12/16 15:10:15;;;;;;;21.10;10.13;;;;;;;5.99;100.00;102275.79;5111915;56;1140787;-77
2023/12/16 15:15:23;;;;;;;23.10;8.53;;;;;;;5.94;100.00;102272.47;5097071;57;1140837;-77
2023/12/16 15:20:29;;;;;;;16.05;7.62;;;;;;;5.89;100.00;102272.19;5065095;57;1138671;-75
2023/12/16 15:25:35;;;;;;;26.68;10.30;;;;;;;5.87;100.00;102280.53;5101529;56;1138590;-76
2023/12/16 15:30:40;;;;;;;19.00;7.63;;;;;;;5.87;100.00;102282.70;4986464;58;1140896;-80
2023/12/16 15:35:46;;;;;;;22.48;8.88;;;;;;;5.89;100.00;102268.25;4900161;58;1138983;-77
2023/12/16 15:40:52;;;;;;;18.83;6.23;;;;;;;5.87;100.00;102259.06;4926685;58;1138657;-77
2023/12/16 15:45:57;;;;;;;19.80;7.22;;;;;;;5.86;100.00;102259.11;4906335;58;1138602;-77
2023/12/16 15:51:03;;;;;;;27.07;11.10;;;;;;;5.85;100.00;102262.19;4954852;58;1138803;-77
2023/12/16 15:56:09;;;;;;;19.87;6.57;;;;;;;5.86;100.00;102272.23;5006824;58;1140894;-76
2023/12/16 16:01:14;;;;;;;20.45;6.92;;;;;;;5.83;100.00;102263.14;4956098;58;1138935;-79
2023/12/16 16:06:20;;;;;;;21.10;5.63;;;;;;;5.84;100.00;102263.09;4938037;58;1161718;-81
2023/12/16 16:11:26;;;;;;;26.33;8.03;;;;;;;5.84;100.00;102264.41;4928039;58;1138865;-75
2023/12/16 16:16:32;;;;;;;23.52;8.40;;;;;;;5.85;100.00;102259.56;4892671;58;1138580;-77
2023/12/16 16:21:37;;;;;;;25.50;6.20;;;;;;;5.86;100.00;102258.66;4859982;58;1138956;-77
2023/12/16 16:26:43;;;;;;;14.60;4.87;;;;;;;5.83;100.00;102262.69;4863333;58;1138986;-75
2023/12/16 16:31:48;;;;;;;24.53;7.63;;;;;;;5.80;100.00;102268.05;4900940;58;1138659;-79
2023/12/16 16:36:54;;;;;;;15.73;4.37;;;;;;;5.82;100.00;102254.40;4878111;58;1138635;-79
2023/12/16 16:42:03;;;;;;;18.27;7.10;;;;;;;5.81;100.00;102259.24;4849338;58;1138701;-74
2023/12/16 16:47:07;;;;;;;17.80;5.23;;;;;;;5.84;100.00;102255.22;4858444;59;1138646;-74
2023/12/16 16:52:12;;;;;;;26.80;7.65;;;;;;;5.85;100.00;102271.38;4831733;59;1138705;-74
2023/12/16 16:57:20;;;;;;;14.60;5.90;;;;;;;5.86;100.00;102264.36;4801390;59;1138751;-76
2023/12/16 17:02:26;;;;;;;18.00;5.93;;;;;;;5.87;100.00;102258.20;4796980;59;1138626;-79
2023/12/16 17:07:32;;;;;;;29.70;9.67;;;;;;;5.85;100.00;102246.44;4997187;58;1138814;-80
2023/12/16 17:12:38;;;;;;;52.50;15.20;;;;;;;5.87;100.00;102250.33;5002655;57;1139523;-83
2023/12/16 17:17:44;;;;;;;35.03;8.70;;;;;;;5.88;100.00;102248.11;5040603;57;1140649;-85
2023/12/16 17:22:50;;;;;;;78.87;16.10;;;;;;;5.89;100.00;102241.99;4849198;59;1138591;-78
2023/12/16 17:27:55;;;;;;;34.30;7.47;;;;;;;5.91;100.00;102232.30;4817153;59;1141299;-77
2023/12/16 17:33:01;;;;;;;59.97;14.63;;;;;;;5.93;100.00;102227.87;4852354;59;1138864;-78
2023/12/16 17:38:06;;;;;;;57.63;12.93;;;;;;;5.92;100.00;102226.15;4823471;59;1141220;-77
2023/12/16 17:43:12;;;;;;;33.18;10.40;;;;;;;5.91;100.00;102225.73;5029920;57;1140614;-78
2023/12/16 17:48:18;;;;;;;37.90;9.28;;;;;;;5.89;100.00;102217.91;5055855;57;1140876;-78
2023/12/16 17:53:25;;;;;;;21.33;5.85;;;;;;;5.89;100.00;102229.72;4841815;58;1138875;-76
2023/12/16 17:58:31;;;;;;;28.43;8.80;;;;;;;5.91;100.00;102228.36;4929717;58;1138718;-78
2023/12/16 18:03:36;;;;;;;25.50;9.23;;;;;;;5.91;100.00;102233.62;4872566;59;1138997;-78
2023/12/16 18:08:42;;;;;;;47.77;12.67;;;;;;;5.90;100.00;102226.64;4978758;57;1138773;-76
2023/12/16 18:13:48;;;;;;;46.27;14.20;;;;;;;5.89;100.00;102232.34;4891666;58;1140835;-76
2023/12/16 18:18:53;;;;;;;35.23;8.33;;;;;;;5.87;100.00;102225.38;5048535;57;1140937;-77
2023/12/16 18:24:00;;;;;;;15.07;5.40;;;;;;;5.85;100.00;102231.13;5054062;57;1138838;-77
2023/12/16 18:29:05;;;;;;;14.57;5.73;;;;;;;5.82;100.00;102234.70;5080458;57;1138651;-77
2023/12/16 18:34:14;;;;;;;16.77;6.17;;;;;;;5.82;100.00;102230.77;5060673;57;1138723;-77
2023/12/16 18:39:18;;;;;;;25.70;6.40;;;;;;;5.83;100.00;102227.69;5055889;57;1138936;-77
2023/12/16 18:44:24;;;;;;;23.47;6.20;;;;;;;5.83;100.00;102218.50;4985490;57;1138913;-77
2023/12/16 18:49:32;;;;;;;13.68;4.90;;;;;;;5.83;100.00;102218.50;5022726;57;1138786;-77
2023/12/16 18:54:37;;;;;;;14.83;4.75;;;;;;;5.84;100.00;102231.59;4977783;58;1138947;-77
2023/12/16 18:59:43;;;;;;;14.90;4.57;;;;;;;5.83;100.00;102229.00;4808981;59;1138761;-77
2023/12/16 19:04:49;;;;;;;16.10;5.23;;;;;;;5.83;100.00;102226.37;4845065;60;1138558;-77
2023/12/16 19:09:56;;;;;;;18.00;7.87;;;;;;;5.82;100.00;102222.03;4868701;58;1138489;-77
2023/12/16 19:15:02;;;;;;;23.47;5.80;;;;;;;5.80;100.00;102215.55;4903376;59;1138650;-77
2023/12/16 19:20:09;;;;;;;26.70;8.43;;;;;;;5.79;100.00;102224.33;4866869;58;1138805;-76
2023/12/16 19:25:14;;;;;;;16.52;5.87;;;;;;;5.80;100.00;102198.48;4817520;59;1138953;-76
2023/12/16 19:30:20;;;;;;;13.83;5.07;;;;;;;5.82;100.00;102194.02;4836689;58;1138723;-76
2023/12/16 19:35:26;;;;;;;19.37;6.03;;;;;;;5.84;100.00;102184.78;4862182;59;1138926;-76
2023/12/16 19:40:31;;;;;;;23.00;5.92;;;;;;;5.87;100.00;102192.56;4929760;58;1138557;-77
2023/12/16 19:45:37;;;;;;;22.87;7.10;;;;;;;5.88;100.00;102203.47;4822634;59;1138556;-76
2023/12/16 19:50:43;;;;;;;18.40;5.55;;;;;;;5.88;100.00;102224.06;4822570;59;1138673;-76
2023/12/16 19:55:48;;;;;;;14.10;5.37;;;;;;;5.89;100.00;102236.28;4804633;60;1138808;-76
2023/12/16 20:00:54;;;;;;;28.33;5.20;;;;;;;5.93;100.00;102215.60;4978308;58;1138785;-76
2023/12/16 20:05:59;;;;;;;13.90;3.80;;;;;;;5.94;100.00;102221.27;4876294;58;1138796;-76
2023/12/16 20:11:07;;;;;;;12.43;4.70;;;;;;;5.94;100.00;102213.37;4895652;58;1138524;-77
2023/12/16 20:16:13;;;;;;;15.13;5.60;;;;;;;5.96;100.00;102206.28;4903364;58;1140948;-76
2023/12/16 20:21:19;;;;;;;12.47;5.10;;;;;;;5.96;100.00;102201.03;4922920;58;1140790;-76
2023/12/16 20:26:24;;;;;;;17.00;5.67;;;;;;;5.95;100.00;102205.05;4946730;58;1140652;-76
2023/12/16 20:31:30;;;;;;;12.18;4.85;;;;;;;5.92;100.00;102203.37;4926777;57;1138965;-77
2023/12/16 20:36:35;;;;;;;17.00;5.80;;;;;;;5.87;100.00;102203.93;4838313;58;1138834;-77
2023/12/16 20:41:41;;;;;;;17.73;5.22;;;;;;;5.85;100.00;102195.23;4887607;58;1138802;-79
2023/12/16 20:46:46;;;;;;;16.07;6.33;;;;;;;5.85;100.00;102187.36;4967203;57;1138905;-77
2023/12/16 20:51:55;;;;;;;18.30;7.73;;;;;;;5.83;100.00;102194.42;4955509;58;1138697;-77
2023/12/16 20:56:59;;;;;;;13.43;5.63;;;;;;;5.83;100.00;102179.12;4982082;58;1138822;-78
2023/12/16 21:02:07;;;;;;;12.37;6.97;;;;;;;5.82;100.00;102180.88;4908535;58;1138729;-76
2023/12/16 21:07:14;;;;;;;23.87;6.10;;;;;;;5.82;100.00;102176.95;4858549;58;1138859;-78
2023/12/16 21:12:21;;;;;;;20.27;5.70;;;;;;;5.83;100.00;102165.98;4867782;58;1138561;-78
2023/12/16 21:17:28;;;;;;;21.70;7.25;;;;;;;5.81;100.00;102157.30;4873328;57;1142883;-77
2023/12/16 21:22:34;;;;;;;20.97;7.78;;;;;;;5.84;100.00;102153.27;4890667;57;1138730;-77
2023/12/16 21:27:42;;;;;;;31.10;8.27;;;;;;;5.86;100.00;102127.38;4869340;58;1140997;-78
2023/12/16 21:32:47;;;;;;;35.33;5.83;;;;;;;5.87;100.00;102114.66;4865003;58;1139040;-77
2023/12/16 21:37:53;;;;;;;12.17;5.47;;;;;;;5.89;100.00;102111.56;4888780;58;1139271;-79
2023/12/16 21:43:00;;;;;;;17.45;5.97;;;;;;;5.90;100.00;102120.30;4883614;58;1138815;-79
2023/12/16 21:48:06;;;;;;;15.10;5.60;;;;;;;5.91;100.00;102112.38;4818459;58;1138635;-77
2023/12/16 21:53:12;;;;;;;23.83;7.65;;;;;;;5.92;100.00;102097.48;4818418;58;1138664;-79
2023/12/16 21:58:17;;;;;;;26.47;8.50;;;;;;;5.93;100.00;102089.55;4806383;59;1138538;-79
2023/12/16 22:03:23;;;;;;;17.25;6.78;;;;;;;5.95;100.00;102087.73;4872653;58;1138703;-77
2023/12/16 22:08:29;;;;;;;21.67;6.20;;;;;;;5.97;100.00;102081.09;4871450;58;1147931;-78
2023/12/16 22:13:34;;;;;;;25.08;7.55;;;;;;;5.98;100.00;102058.72;4800036;59;1138877;-78
2023/12/16 22:18:40;;;;;;;17.60;8.28;;;;;;;6.02;100.00;102073.06;4814351;58;1138614;-77
2023/12/16 22:23:45;;;;;;;19.50;6.40;;;;;;;6.04;100.00;102059.44;4880564;58;1138562;-79
2023/12/16 22:28:51;;;;;;;20.77;7.00;;;;;;;6.05;100.00;102078.22;4842468;59;1138845;-77
2023/12/16 22:33:57;;;;;;;20.77;8.70;;;;;;;6.08;100.00;102079.44;4861412;58;1138915;-79
2023/12/16 22:39:02;;;;;;;30.93;8.27;;;;;;;6.12;100.00;102081.02;4920429;59;1138757;-79
2023/12/16 22:44:08;;;;;;;24.30;7.08;;;;;;;6.15;100.00;102101.95;4834090;59;1138716;-77